Conyers, GA (30012)

12:25 AM EDT on September 01, 2015 (GMT -0400)
Zingara Rd | | Change Station
CLOSE
Current Station
Personal Weather Station
Location: Conyers, GA
Elevation: 817 ft
Nearby Weather Stations

Elev 817 ft 33.73 °N, 83.99 °W | Updated 10 seconds ago

Clear
Clear
69.8 °F
Feels Like 69.8 °F
N
0.0
Wind Variable Wind from East
Gusts 2.0 mph

Today
High -- | Low -- °F
--% Chance of Precip.
Yesterday
High -- | Low -- °F
Precip. -- in
7:09 AM 8:01 PM
Waning Gibbous, 91% visible
Pressure 30.09 in
Visibility 10.0 miles
Clouds Clear
Dew Point 70 °F
Humidity 99%
Rainfall 0.00 in
Snow Depth Not available.
UV 0 out of 12
Pollen 7.20 out of 12
Air Quality Not available.
Flu Activity Not available.
METAR KPDK 010353Z AUTO 00000KT 10SM CLR 21/21 A3013 RMK AO2 SLP190 T02110206
Pressure 30.09 in
Visibility 10.0 miles
Clouds Clear
Dew Point 70 °F
Humidity 99%
Rainfall 0.00 in
Snow Depth Not available.
UV 0 out of 12
Pollen 7.20 out of 12
Air Quality Not available.
Flu Activity Not available.
METAR KPDK 010353Z AUTO 00000KT 10SM CLR 21/21 A3013 RMK AO2 SLP190 T02110206

10-Day Weather Forecast

×

Almanac

Astronomy

Sep. 01, 2015 Rise Set
Actual Time
Civil Twilight
Nautical Twilight
Astronomical Twilight
Moon
Length of Visible Light
Length of Day
Tomorrow will be .
, % of the Moon is Illuminated

Today's Extremes

State Highs State Lows

Community

WunderPhotos

Upload Photos

1,851,477 photos uploaded!

WunderBlogs® & News

Nearby

Air Quality

  Air Quality AQ Index Pollutant
Not available.

Snow Depth

Station Depth Elevation

Earthquake Activity

City Distance Mag. Time & Date
Minimum magnitude displayed is 2.5.

Coastal Water Temperatures

Place Temperature

Stations

Nearby Weather Stations

Station Location Temp. Windchill Dew Point Humidity Wind Precip. Elev Updated Type